Terminal Aerodrome Forecast
Issued by NWS

Home | Current Version | Previous Version | Text Only | Print | Product List | Glossary On
Versions: 1 2 3 4 5 6 7 8 9 10 11 12 13 14 15 16 17 18 19 20 21 22 23 24 25 26 27 28 29 30
000
FTPQ31 PGUM 190520
TAFGUM
TAF

TAF
PTRO 190520Z 1906/2006 07011G20KT P6SM VCSH SCT016 SCT030 BKN110
      TEMPO 1906/1910 4SM SHRA BKN016
     FM191100 08011KT P6SM VCSH SCT015 BKN050 BKN120=

USA.gov is the U.S. government's official web portal to all federal, state and local government web resources and services.